Time;durP1;ratioP1;P1;durP2;ratioP2;P2;SDS_P1;SDS_P2;PMS_P1;PMS_P2;Temp;Humidity;BMP_temperature;BMP_pressure;BME280_temperature;BME280_humidity;BME280_pressure;Samples;Min_cycle;Max_cycle;Signal;HPM_P1;HPM_P2
2022/09/16 00:00:26;;;;;;;;;;;;;;;11.93;100.00;101052.63;5012160;28;19987;-40
2022/09/16 00:02:52;;;;;;;;;;;;;;;11.90;100.00;101050.25;5003033;28;19925;-41
2022/09/16 00:05:17;;;;;;;;;;;;;;;11.87;100.00;101039.03;4998178;28;19932;-43
2022/09/16 00:07:43;;;;;;;;;;;;;;;11.86;100.00;101045.38;5002111;28;20234;-41
2022/09/16 00:10:09;;;;;;;;;;;;;;;11.86;100.00;101037.34;5008242;28;19921;-41
2022/09/16 00:12:35;;;;;;;;;;;;;;;11.86;100.00;101042.72;4997049;28;19932;-39
2022/09/16 00:15:00;;;;;;;;;;;;;;;11.82;100.00;101039.53;5003232;28;20374;-41
2022/09/16 00:17:25;;;;;;;;;;;;;;;11.77;100.00;101037.34;5008721;28;20538;-41
2022/09/16 00:19:50;;;;;;;;;;;;;;;11.75;100.00;101041.19;5012547;28;19921;-40
2022/09/16 00:22:17;;;;;;;;;;;;;;;11.75;100.00;101041.19;5011040;28;19932;-42
2022/09/16 00:24:42;;;;;;;;;;;;;;;11.77;100.00;101037.34;5010694;28;20317;-41
2022/09/16 00:27:07;;;;;;;;;;;;;;;11.80;100.00;101046.91;5004129;28;20000;-43
2022/09/16 00:29:32;;;;;;;;;;;;;;;11.83;100.00;101033.19;5002222;28;19944;-42
2022/09/16 00:31:58;;;;;;;;;;;;;;;11.83;100.00;101030.50;4996545;28;19995;-42
2022/09/16 00:34:23;;;;;;;;;;;;;;;11.84;100.00;101034.84;5005464;28;19964;-41
2022/09/16 00:36:48;;;;;;;;;;;;;;;11.80;100.00;101030.84;4999060;28;19957;-41
2022/09/16 00:39:14;;;;;;;;;;;;;;;11.75;100.00;101035.84;5003959;28;19925;-42
2022/09/16 00:41:39;;;;;;;;;;;;;;;11.73;100.00;101040.53;4998563;28;19917;-41
2022/09/16 00:44:06;;;;;;;;;;;;;;;11.69;100.00;101039.16;4998978;28;20309;-41
2022/09/16 00:46:35;;;;;;;;;;;;;;;11.66;100.00;101029.63;5005506;28;19925;-42
2022/09/16 00:49:02;;;;;;;;;;;;;;;11.60;100.00;101030.28;4997777;28;20125;-41
2022/09/16 00:51:27;;;;;;;;;;;;;;;11.56;100.00;101031.63;5009430;28;19948;-43
2022/09/16 00:53:56;;;;;;;;;;;;;;;11.52;100.00;101025.75;5002370;28;19959;-40
2022/09/16 00:56:24;;;;;;;;;;;;;;;11.51;100.00;101034.78;4997505;28;19918;-42
2022/09/16 00:59:05;;;;;;;;;;;;;;;11.45;100.00;101027.38;4998696;28;20327;-41
2022/09/16 01:01:30;;;;;;;;;;;;;;;11.39;100.00;101033.41;5003401;28;19964;-42
2022/09/16 01:03:59;;;;;;;;;;;;;;;11.31;100.00;101026.19;4997485;28;19985;-41
2022/09/16 01:06:25;;;;;;;;;;;;;;;11.29;100.00;101030.84;5009240;28;20141;-44
2022/09/16 01:08:51;;;;;;;;;;;;;;;11.29;100.00;101025.50;5006110;28;19921;-41
2022/09/16 01:11:16;;;;;;;;;;;;;;;11.26;100.00;101022.31;4998003;28;19952;-41
2022/09/16 01:13:41;;;;;;;;;;;;;;;11.21;100.00;101022.81;5013654;28;19921;-43
2022/09/16 01:16:09;;;;;;;;;;;;;;;11.15;100.00;101015.41;5004529;28;19922;-42
2022/09/16 01:18:58;;;;;;;;;;;;;;;11.10;100.00;101023.06;5013677;28;20394;-41
2022/09/16 01:21:37;;;;;;;;;;;;;;;11.07;100.00;101021.56;5013214;28;20415;-41
2022/09/16 01:27:34;;;;;;;;;;;;;;;11.11;100.00;101011.41;5020275;28;19928;-40
2022/09/16 01:30:05;;;;;;;;;;;;;;;11.15;100.00;101013.59;5024171;28;20468;-43
2022/09/16 01:32:56;;;;;;;;;;;;;;;11.12;100.00;101016.59;5022290;28;19940;-40
2022/09/16 01:35:51;;;;;;;;;;;;;;;11.03;100.00;101017.53;5012320;28;19925;-40
2022/09/16 01:38:34;;;;;;;;;;;;;;;11.01;100.00;101025.72;5014256;28;20273;-41
2022/09/16 01:41:03;;;;;;;;;;;;;;;11.00;100.00;101017.88;5019586;28;20281;-44
2022/09/16 01:43:31;;;;;;;;;;;;;;;11.00;100.00;101025.88;5021427;28;20020;-43
2022/09/16 01:46:02;;;;;;;;;;;;;;;10.97;100.00;101024.34;5021128;28;19936;-44
2022/09/16 01:48:34;;;;;;;;;;;;;;;10.98;100.00;101017.16;5021390;28;20115;-42
2022/09/16 01:51:03;;;;;;;;;;;;;;;10.98;100.00;101010.00;5018779;28;20329;-43
2022/09/16 01:53:37;;;;;;;;;;;;;;;10.97;100.00;101016.34;5020891;28;19917;-42
2022/09/16 01:56:29;;;;;;;;;;;;;;;10.96;100.00;101017.38;5012598;28;19924;-42
2022/09/16 01:59:14;;;;;;;;;;;;;;;10.96;100.00;101012.00;5018761;28;19995;-41
2022/09/16 02:01:49;;;;;;;;;;;;;;;10.98;100.00;101020.69;5015297;28;19921;-43
2022/09/16 02:04:17;;;;;;;;;;;;;;;11.01;100.00;101025.72;5017529;28;20459;-44
2022/09/16 02:06:44;;;;;;;;;;;;;;;11.01;100.00;101017.72;5020257;28;19923;-42
2022/09/16 02:09:15;;;;;;;;;;;;;;;10.98;100.00;101014.50;5008592;28;19944;-43
2022/09/16 02:11:42;;;;;;;;;;;;;;;10.94;100.00;101022.00;5019756;28;19923;-42
2022/09/16 02:14:13;;;;;;;;;;;;;;;10.89;100.00;101028.81;5018899;28;19920;-45
2022/09/16 02:16:41;;;;;;;;;;;;;;;10.87;100.00;101025.47;5019775;28;19941;-43
2022/09/16 02:19:09;;;;;;;;;;;;;;;10.83;100.00;101031.13;5017326;28;19921;-42
2022/09/16 02:21:37;;;;;;;;;;;;;;;10.85;100.00;101022.97;5018597;28;20000;-43
2022/09/16 02:24:04;;;;;;;;;;;;;;;10.86;100.00;101031.81;5018473;28;19921;-42
2022/09/16 02:26:33;;;;;;;;;;;;;;;10.88;100.00;101037.81;5016225;28;19913;-43
2022/09/16 02:28:59;;;;;;;;;;;;;;;10.87;100.00;101031.66;5010836;28;20008;-40
2022/09/16 02:31:29;;;;;;;;;;;;;;;10.90;100.00;101035.88;5019568;28;20356;-41
2022/09/16 02:34:00;;;;;;;;;;;;;;;10.89;100.00;101032.34;5019496;28;19994;-41
2022/09/16 02:36:26;;;;;;;;;;;;;;;10.91;100.00;101029.50;5025396;28;19971;-41
2022/09/16 02:39:00;;;;;;;;;;;;;;;10.93;100.00;101030.19;5024162;28;20360;-41
2022/09/16 02:41:25;;;;;;;;;;;;;;;10.94;100.00;101026.50;5023925;28;19917;-41
2022/09/16 02:43:50;;;;;;;;;;;;;;;10.95;100.00;101020.19;5023687;28;19917;-43
2022/09/16 02:46:25;;;;;;;;;;;;;;;10.95;100.00;101029.03;5019406;28;19924;-39
2022/09/16 02:49:09;;;;;;;;;;;;;;;10.98;100.00;101028.72;5037912;28;19917;-43
2022/09/16 02:51:40;;;;;;;;;;;;;;;11.02;100.00;101027.38;5022660;28;19917;-42
2022/09/16 02:54:14;;;;;;;;;;;;;;;11.06;100.00;101025.22;5018383;28;19956;-41
2022/09/16 02:56:40;;;;;;;;;;;;;;;11.09;100.00;101022.25;5021374;28;19987;-41
2022/09/16 02:59:07;;;;;;;;;;;;;;;11.14;100.00;101025.28;5023676;28;19940;-43
2022/09/16 03:01:35;;;;;;;;;;;;;;;11.16;100.00;101023.28;5022878;28;19913;-39
2022/09/16 03:04:01;;;;;;;;;;;;;;;11.20;100.00;101032.66;5021570;28;20135;-41
2022/09/16 03:06:27;;;;;;;;;;;;;;;11.22;100.00;101018.28;5023123;28;19921;-40
2022/09/16 03:08:55;;;;;;;;;;;;;;;11.23;100.00;101019.97;5032215;28;20438;-40
2022/09/16 03:11:39;;;;;;;;;;;;;;;11.27;100.00;101021.31;5029014;28;20368;-39
2022/09/16 03:14:22;;;;;;;;;;;;;;;11.28;100.00;101023.00;5016120;28;19917;-40
2022/09/16 03:17:07;;;;;;;;;;;;;;;11.29;100.00;101036.22;5022546;28;19960;-41
2022/09/16 03:19:36;;;;;;;;;;;;;;;11.34;100.00;101020.50;5022696;28;20443;-40
2022/09/16 03:22:19;;;;;;;;;;;;;;;11.35;100.00;101026.69;5021160;28;20432;-41
2022/09/16 03:24:45;;;;;;;;;;;;;;;11.32;100.00;101016.31;5021497;28;20044;-40
2022/09/16 03:27:14;;;;;;;;;;;;;;;11.32;100.00;101013.63;5021615;28;20040;-40
2022/09/16 03:29:45;;;;;;;;;;;;;;;11.32;100.00;101011.81;5021511;28;19917;-40
2022/09/16 03:32:10;;;;;;;;;;;;;;;11.31;100.00;101015.50;5021506;28;19939;-43
2022/09/16 03:34:41;;;;;;;;;;;;;;;11.32;100.00;101016.31;5020920;28;20007;-42
2022/09/16 03:37:09;;;;;;;;;;;;;;;11.29;100.00;101014.81;5021032;28;20353;-42
2022/09/16 03:39:34;;;;;;;;;;;;;;;11.25;100.00;101008.09;5033044;28;19975;-41
2022/09/16 03:42:04;;;;;;;;;;;;;;;11.23;100.00;101015.44;5018374;28;19917;-41
2022/09/16 03:44:32;;;;;;;;;;;;;;;11.19;100.00;101012.25;5022334;28;19925;-41
2022/09/16 03:46:58;;;;;;;;;;;;;;;11.11;100.00;101009.56;5021488;28;20019;-40
2022/09/16 03:49:23;;;;;;;;;;;;;;;11.08;100.00;101011.72;5021628;28;20028;-40
2022/09/16 03:51:48;;;;;;;;;;;;;;;11.05;100.00;101012.03;5018341;28;19932;-41
2022/09/16 03:54:13;;;;;;;;;;;;;;;11.01;100.00;101015.03;5023116;28;20269;-42
2022/09/16 03:56:38;;;;;;;;;;;;;;;11.02;100.00;101013.19;5021238;28;19948;-41
2022/09/16 03:59:03;;;;;;;;;;;;;;;11.05;100.00;101012.03;5022097;28;19948;-40
2022/09/16 04:01:29;;;;;;;;;;;;;;;11.07;100.00;101015.41;5020389;28;19924;-42
2022/09/16 04:03:55;;;;;;;;;;;;;;;11.07;100.00;101016.22;5010148;28;19925;-40
2022/09/16 04:06:20;;;;;;;;;;;;;;;11.07;100.00;101010.88;5020645;28;20392;-41
2022/09/16 04:08:46;;;;;;;;;;;;;;;11.08;100.00;101014.38;5020886;28;19941;-41
2022/09/16 04:11:11;;;;;;;;;;;;;;;11.08;100.00;101009.88;5019894;28;19925;-40
2022/09/16 04:13:36;;;;;;;;;;;;;;;11.08;100.00;101009.88;5021852;28;20027;-41
2022/09/16 04:16:02;;;;;;;;;;;;;;;11.08;100.00;101012.53;5022077;28;20329;-41
2022/09/16 04:18:32;;;;;;;;;;;;;;;11.06;100.00;101021.72;5022284;28;19917;-43
2022/09/16 04:20:58;;;;;;;;;;;;;;;11.04;100.00;101016.53;5020289;28;20015;-40
2022/09/16 04:23:24;;;;;;;;;;;;;;;11.02;100.00;101018.53;5020828;28;20420;-40
2022/09/16 04:25:59;;;;;;;;;;;;;;;10.99;100.00;101035.72;5019966;28;20339;-39
2022/09/16 04:28:25;;;;;;;;;;;;;;;11.00;100.00;101029.38;5021408;28;19913;-40
2022/09/16 04:30:51;;;;;;;;;;;;;;;11.00;100.00;101026.72;5025019;28;19917;-40
2022/09/16 04:33:16;;;;;;;;;;;;;;;11.01;100.00;101028.41;5016073;28;19917;-40
2022/09/16 04:35:41;;;;;;;;;;;;;;;11.03;100.00;101017.53;5018840;28;20481;-41
2022/09/16 04:38:06;;;;;;;;;;;;;;;11.08;100.00;101017.06;5020177;28;20000;-40
2022/09/16 04:40:32;;;;;;;;;;;;;;;11.08;100.00;101017.06;5019778;28;19971;-40
2022/09/16 04:42:57;;;;;;;;;;;;;;;11.10;100.00;101007.03;5025674;28;20291;-41
2022/09/16 04:45:22;;;;;;;;;;;;;;;11.13;100.00;101004.06;5020880;28;19917;-41
2022/09/16 04:47:48;;;;;;;;;;;;;;;11.14;100.00;101009.25;5021145;28;19921;-40
2022/09/16 04:50:13;;;;;;;;;;;;;;;11.14;100.00;100998.53;5017906;28;20360;-41
2022/09/16 04:52:38;;;;;;;;;;;;;;;11.13;100.00;100991.53;5021011;28;20393;-40
2022/09/16 04:55:03;;;;;;;;;;;;;;;11.11;100.00;100996.19;5020017;28;19917;-41
2022/09/16 04:57:30;;;;;;;;;;;;;;;11.11;100.00;101009.56;5021500;28;19909;-40
2022/09/16 04:59:55;;;;;;;;;;;;;;;11.10;100.00;101015.06;5019898;28;20366;-40
2022/09/16 05:02:20;;;;;;;;;;;;;;;11.08;100.00;101019.72;5021117;28;19984;-40
2022/09/16 05:04:45;;;;;;;;;;;;;;;11.04;100.00;101021.88;5018959;28;20107;-45
2022/09/16 05:07:10;;;;;;;;;;;;;;;11.02;100.00;101018.53;5020032;28;19913;-45
2022/09/16 05:09:36;;;;;;;;;;;;;;;10.98;100.00;101017.16;5021046;28;20004;-44
2022/09/16 05:12:01;;;;;;;;;;;;;;;10.96;100.00;101016.50;5018347;28;19925;-42
2022/09/16 05:14:26;;;;;;;;;;;;;;;10.96;100.00;101027.19;5021832;28;19983;-43
2022/09/16 05:16:52;;;;;;;;;;;;;;;10.95;100.00;101038.91;5012652;28;19975;-45
2022/09/16 05:19:17;;;;;;;;;;;;;;;10.97;100.00;101032.38;5019578;28;19913;-43
2022/09/16 05:21:43;;;;;;;;;;;;;;;10.99;100.00;101010.84;5020036;28;19917;-45
2022/09/16 05:24:09;;;;;;;;;;;;;;;10.99;100.00;101003.66;5019686;28;20361;-42
2022/09/16 05:26:36;;;;;;;;;;;;;;;10.99;100.00;101006.31;5010905;28;19987;-44
2022/09/16 05:29:02;;;;;;;;;;;;;;;10.99;100.00;101016.19;5013222;28;19920;-42
2022/09/16 05:31:29;;;;;;;;;;;;;;;10.97;100.00;101013.66;5018770;28;20490;-42
2022/09/16 05:34:09;;;;;;;;;;;;;;;10.97;100.00;101023.53;5015808;28;19990;-41
2022/09/16 05:36:36;;;;;;;;;;;;;;;10.95;100.00;101014.84;5007140;28;20423;-43
2022/09/16 05:39:02;;;;;;;;;;;;;;;10.94;100.00;101024.69;5004441;28;19917;-43
2022/09/16 05:41:27;;;;;;;;;;;;;;;10.93;100.00;101022.16;5004666;28;19909;-42
2022/09/16 05:43:53;;;;;;;;;;;;;;;10.93;100.00;101030.19;5010354;28;19928;-42
2022/09/16 05:46:19;;;;;;;;;;;;;;;10.94;100.00;101029.19;5015940;28;20418;-43
2022/09/16 05:48:44;;;;;;;;;;;;;;;10.95;100.00;101033.56;5009974;28;20019;-43
2022/09/16 05:51:13;;;;;;;;;;;;;;;10.99;100.00;101024.19;5018130;28;20020;-41
2022/09/16 05:53:38;;;;;;;;;;;;;;;11.04;100.00;101023.72;5023814;28;19921;-43
2022/09/16 05:56:05;;;;;;;;;;;;;;;11.05;100.00;101028.94;5018831;28;20291;-42
2022/09/16 05:58:31;;;;;;;;;;;;;;;11.09;100.00;101030.25;5031526;28;19929;-42
2022/09/16 06:00:57;;;;;;;;;;;;;;;11.11;100.00;101027.44;5008097;28;20013;-45
2022/09/16 06:03:22;;;;;;;;;;;;;;;11.12;100.00;101034.47;5020443;28;19929;-43
2022/09/16 06:05:47;;;;;;;;;;;;;;;11.16;100.00;101043.84;5014492;28;19963;-40
2022/09/16 06:08:13;;;;;;;;;;;;;;;11.20;100.00;101047.84;5019622;28;19909;-40
2022/09/16 06:10:39;;;;;;;;;;;;;;;11.22;100.00;101047.69;5010705;28;19917;-40
2022/09/16 06:13:04;;;;;;;;;;;;;;;11.22;100.00;101042.34;5018052;28;20394;-39
2022/09/16 06:15:30;;;;;;;;;;;;;;;11.19;100.00;101047.03;5010205;28;20035;-41
2022/09/16 06:17:55;;;;;;;;;;;;;;;11.18;100.00;101041.81;5006147;28;19943;-40
2022/09/16 06:20:21;;;;;;;;;;;;;;;11.18;100.00;101041.81;5001836;28;20050;-40
2022/09/16 06:22:46;;;;;;;;;;;;;;;11.23;100.00;101044.03;5011407;28;19909;-39
2022/09/16 06:25:11;;;;;;;;;;;;;;;11.33;100.00;101047.41;5014976;28;19921;-40
2022/09/16 06:27:36;;;;;;;;;;;;;;;11.42;100.00;101042.94;5017711;28;19910;-41
2022/09/16 06:30:02;;;;;;;;;;;;;;;11.52;100.00;101057.00;5016794;28;19917;-40
2022/09/16 06:32:30;;;;;;;;;;;;;;;11.59;100.00;101068.72;5007467;28;20260;-39
2022/09/16 06:34:55;;;;;;;;;;;;;;;11.66;100.00;101059.06;5012288;28;20512;-42
2022/09/16 06:37:20;;;;;;;;;;;;;;;11.71;100.00;101067.44;5017424;28;19921;-40
2022/09/16 06:39:45;;;;;;;;;;;;;;;11.74;100.00;101058.25;5012878;28;20004;-39
2022/09/16 06:42:10;;;;;;;;;;;;;;;11.65;100.00;101061.91;5006924;28;20012;-42
2022/09/16 06:44:36;;;;;;;;;;;;;;;11.56;100.00;101056.53;5007890;28;19980;-41
2022/09/16 06:47:01;;;;;;;;;;;;;;;11.50;100.00;101059.00;5019008;28;19921;-40
2022/09/16 06:49:26;;;;;;;;;;;;;;;11.44;100.00;101057.84;5019774;28;19960;-40
2022/09/16 06:51:51;;;;;;;;;;;;;;;11.43;100.00;101053.47;5028398;28;21053;-39
2022/09/16 06:54:16;;;;;;;;;;;;;;;11.45;100.00;101054.13;5019724;28;19921;-41
2022/09/16 06:56:42;;;;;;;;;;;;;;;11.50;100.00;101046.47;5007573;28;19975;-39
2022/09/16 06:59:07;;;;;;;;;;;;;;;11.56;100.00;101047.69;5018242;28;20078;-41
2022/09/16 07:01:33;;;;;;;;;;;;;;;11.63;100.00;101058.56;5019253;28;19921;-40
2022/09/16 07:04:01;;;;;;;;;;;;;;;11.71;100.00;101062.09;5017918;28;19947;-40
2022/09/16 07:06:28;;;;;;;;;;;;;;;11.83;100.00;101061.75;5033022;28;19940;-40
2022/09/16 07:08:53;;;;;;;;;;;;;;;11.87;100.00;101053.25;5018149;28;19921;-41
2022/09/16 07:11:19;;;;;;;;;;;;;;;12.01;100.00;101056.31;5017216;28;19921;-39
2022/09/16 07:13:46;;;;;;;;;;;;;;;12.12;100.00;101061.38;5020596;28;19936;-42
2022/09/16 07:16:13;;;;;;;;;;;;;;;12.28;100.00;101064.03;5016716;28;19979;-39
2022/09/16 07:18:38;;;;;;;;;;;;;;;12.43;100.00;101061.53;5018000;28;19982;-39
2022/09/16 07:21:04;;;;;;;;;;;;;;;12.66;100.00;101067.03;5017437;28;19924;-42
2022/09/16 07:23:30;;;;;;;;;;;;;;;12.66;100.00;101061.69;5020147;28;20317;-40
2022/09/16 07:26:02;;;;;;;;;;;;;;;12.81;100.00;101067.19;5021722;28;19920;-40
2022/09/16 07:28:27;;;;;;;;;;;;;;;13.09;100.00;101071.31;5022804;28;20030;-40
2022/09/16 07:30:52;;;;;;;;;;;;;;;13.42;100.00;101072.91;5019035;28;19986;-40
2022/09/16 07:33:17;;;;;;;;;;;;;;;13.55;100.00;101077.69;5021102;28;19921;-40
2022/09/16 07:35:43;;;;;;;;;;;;;;;13.49;100.00;101080.25;5021088;28;19913;-40
2022/09/16 07:38:08;;;;;;;;;;;;;;;13.36;100.00;101086.19;5021289;28;19917;-40
2022/09/16 07:40:33;;;;;;;;;;;;;;;13.24;100.00;101073.09;5007004;28;19917;-40
2022/09/16 07:42:58;;;;;;;;;;;;;;;13.09;100.00;101071.31;5015647;28;19920;-41
2022/09/16 07:45:24;;;;;;;;;;;;;;;12.98;100.00;101078.72;5018162;28;19929;-41
2022/09/16 07:47:49;;;;;;;;;;;;;;;12.85;100.00;101065.00;5011433;28;20008;-39
2022/09/16 07:50:15;;;;;;;;;;;;;;;12.72;100.00;101076.25;5016892;28;20015;-40
2022/09/16 07:52:40;;;;;;;;;;;;;;;12.56;100.00;101077.09;5003619;28;19943;-40
2022/09/16 07:55:05;;;;;;;;;;;;;;;12.60;100.00;101077.59;5008707;28;19944;-39
2022/09/16 07:57:31;;;;;;;;;;;;;;;12.79;100.00;101079.09;5013586;28;20024;-39
2022/09/16 07:59:56;;;;;;;;;;;;;;;12.95;100.00;101080.88;5004752;28;20158;-40
2022/09/16 08:02:21;;;;;;;;;;;;;;;13.09;100.00;101087.41;5011522;28;19936;-40
2022/09/16 08:04:47;;;;;;;;;;;;;;;13.25;100.00;101080.16;5001219;28;20074;-40
2022/09/16 08:07:12;;;;;;;;;;;;;;;13.42;100.00;101086.31;5006659;28;19917;-39
2022/09/16 08:09:37;;;;;;;;;;;;;;;13.55;100.00;101091.13;5014583;28;20206;-40
2022/09/16 08:12:04;;;;;;;;;;;;;;;13.64;100.00;101081.19;5009879;28;19952;-40
2022/09/16 08:14:29;;;;;;;;;;;;;;;13.73;100.00;101088.19;5008108;28;19995;-40
2022/09/16 08:16:54;;;;;;;;;;;;;;;13.84;100.00;101091.50;5011224;28;19997;-40
2022/09/16 08:19:21;;;;;;;;;;;;;;;13.94;100.00;101089.41;5004225;28;19922;-42
2022/09/16 08:21:46;;;;;;;;;;;;;;;14.06;100.00;101095.22;5008397;28;19913;-41
2022/09/16 08:24:11;;;;;;;;;;;;;;;14.17;100.00;101098.31;5004320;28;20425;-42
2022/09/16 08:26:37;;;;;;;;;;;;;;;14.28;100.00;101104.28;5007009;28;20268;-41
2022/09/16 08:29:02;;;;;;;;;;;;;;;14.40;100.00;101096.66;5010412;28;19948;-41
2022/09/16 08:31:28;;;;;;;;;;;;;;;14.54;100.00;101101.22;5008593;28;20063;-42
2022/09/16 08:33:53;;;;;;;;;;;;;;;14.62;100.00;101100.38;5011493;28;19917;-43
2022/09/16 08:36:22;;;;;;;;;;;;;;;14.79;100.00;101103.75;5002176;28;19917;-42
2022/09/16 08:38:49;;;;;;;;;;;;;;;15.05;100.00;101103.28;5019215;28;19971;-40
2022/09/16 08:41:28;;;;;;;;;;;;;;;15.31;100.00;101108.25;5009141;28;20020;-41
2022/09/16 08:43:54;;;;;;;;;;;;;;;15.43;100.00;101097.84;5018145;28;20536;-40
2022/09/16 08:46:30;;;;;;;;;;;;;;;15.41;100.00;101100.72;5018337;28;19917;-42
2022/09/16 08:48:59;;;;;;;;;;;;;;;15.26;100.00;101103.41;5020570;28;20276;-45
2022/09/16 08:51:25;;;;;;;;;;;;;;;15.14;100.00;101104.03;5013616;28;19909;-41
2022/09/16 08:53:54;;;;;;;;;;;;;;;15.07;100.00;101101.25;5011005;28;19953;-41
2022/09/16 08:56:21;;;;;;;;;;;;;;;14.86;100.00;101110.88;5016274;28;19984;-40
2022/09/16 08:58:49;;;;;;;;;;;;;;;14.70;100.00;101106.50;5007976;28;20007;-41
2022/09/16 09:01:26;;;;;;;;;;;;;;;14.78;100.00;101105.56;5014312;28;19940;-41
2022/09/16 09:03:52;;;;;;;;;;;;;;;15.02;100.00;101106.34;5018519;28;19974;-41
2022/09/16 09:06:17;;;;;;;;;;;;;;;15.24;100.00;101104.59;5016066;28;19999;-40
2022/09/16 09:08:42;;;;;;;;;;;;;;;15.43;100.00;101103.22;5007348;28;20285;-44
2022/09/16 09:11:20;;;;;;;;;;;;;;;15.63;100.00;101103.47;4999908;28;20401;-43
2022/09/16 09:14:04;;;;;;;;;;;;;;;15.63;100.00;101103.47;5003612;28;19976;-41
2022/09/16 09:16:46;;;;;;;;;;;;;;;15.65;100.00;101106.81;5002068;28;19949;-43
2022/09/16 09:19:23;;;;;;;;;;;;;;;15.84;100.00;101121.56;4999807;28;19928;-42
2022/09/16 09:22:10;;;;;;;;;;;;;;;15.99;100.00;101118.84;5001047;28;20285;-41
2022/09/16 09:24:54;;;;;;;;;;;;;;;15.96;99.91;101120.06;5018492;28;19936;-42
2022/09/16 09:27:29;;;;;;;;;;;;;;;15.93;98.66;101144.66;5015771;28;19917;-40
2022/09/16 09:30:06;;;;;;;;;;;;;;;15.62;94.87;101171.81;5001756;28;19917;-40
2022/09/16 09:32:39;;;;;;;;;;;;;;;14.80;99.37;101161.84;5000766;28;20007;-40
2022/09/16 09:35:23;;;;;;;;;;;;;;;14.01;98.21;101164.72;4998954;28;20451;-40
2022/09/16 09:37:48;;;;;;;;;;;;;;;13.57;100.00;101161.53;5001952;28;19938;-41
2022/09/16 09:40:25;;;;;;;;;;;;;;;13.13;100.00;101155.78;4998546;28;19926;-41
2022/09/16 09:42:56;;;;;;;;;;;;;;;12.75;100.00;101150.13;5000451;28;19917;-41
2022/09/16 09:45:24;;;;;;;;;;;;;;;12.62;100.00;101143.41;5008810;28;19917;-41
2022/09/16 09:48:09;;;;;;;;;;;;;;;12.47;100.00;101143.25;5020050;28;19917;-41
2022/09/16 09:50:42;;;;;;;;;;;;;;;12.49;100.00;101138.56;5016813;28;19922;-41
2022/09/16 09:53:10;;;;;;;;;;;;;;;12.45;100.00;101139.88;5020226;28;19917;-41
2022/09/16 09:55:36;;;;;;;;;;;;;;;12.41;100.00;101129.69;5019376;28;20390;-42
2022/09/16 09:58:10;;;;;;;;;;;;;;;12.32;100.00;101135.03;5019752;28;19913;-40
2022/09/16 10:00:36;;;;;;;;;;;;;;;12.26;100.00;101124.13;5020488;28;20008;-41
2022/09/16 10:03:19;;;;;;;;;;;;;;;12.25;100.00;101127.81;5021733;28;20013;-41
2022/09/16 10:05:45;;;;;;;;;;;;;;;12.20;100.00;101132.81;5008234;28;20034;-41
2022/09/16 10:08:18;;;;;;;;;;;;;;;12.16;100.00;101136.84;5020150;28;20209;-40
2022/09/16 10:10:47;;;;;;;;;;;;;;;12.12;100.00;101120.25;5019420;28;19917;-41
2022/09/16 10:13:13;;;;;;;;;;;;;;;12.10;100.00;101125.78;5020967;28;20233;-41
2022/09/16 10:15:38;;;;;;;;;;;;;;;12.16;100.00;101128.81;5013248;28;20391;-41
2022/09/16 10:18:18;;;;;;;;;;;;;;;12.18;100.00;101132.16;5010063;28;19917;-40
2022/09/16 10:20:53;;;;;;;;;;;;;;;12.28;100.00;101127.47;5001090;28;20307;-41
2022/09/16 10:23:21;;;;;;;;;;;;;;;12.63;100.00;101125.50;5001975;28;20048;-41
2022/09/16 10:25:46;;;;;;;;;;;;;;;12.77;100.00;101135.53;5003306;28;20292;-40
2022/09/16 10:28:17;;;;;;;;;;;;;;;12.88;100.00;101128.97;5016119;28;19917;-40
2022/09/16 10:30:51;;;;;;;;;;;;;;;13.24;100.00;101124.06;5017523;28;19917;-40
2022/09/16 10:33:22;;;;;;;;;;;;;;;13.71;100.00;101138.50;5013063;28;19968;-41
2022/09/16 10:35:53;;;;;;;;;;;;;;;14.06;100.00;101128.28;5010309;28;19964;-42
2022/09/16 10:38:20;;;;;;;;;;;;;;;14.31;100.00;101125.44;5015278;28;19917;-41
2022/09/16 10:41:05;;;;;;;;;;;;;;;14.58;100.00;101121.38;5031808;28;20353;-43
2022/09/16 10:43:31;;;;;;;;;;;;;;;15.04;100.00;101120.47;5009275;28;20070;-41
2022/09/16 10:45:56;;;;;;;;;;;;;;;15.43;100.00;101125.59;5008498;28;20343;-41
2022/09/16 10:48:23;;;;;;;;;;;;;;;15.60;100.00;101115.44;5003947;28;20372;-41
2022/09/16 10:50:56;;;;;;;;;;;;;;;15.70;100.00;101112.47;5008857;28;20325;-40
2022/09/16 10:53:25;;;;;;;;;;;;;;;16.12;100.00;101115.44;5009700;28;19965;-42
2022/09/16 10:55:57;;;;;;;;;;;;;;;16.46;100.00;101105.84;5006592;28;19933;-43
2022/09/16 10:58:22;;;;;;;;;;;;;;;16.51;100.00;101104.22;5003272;28;19976;-40
2022/09/16 11:00:57;;;;;;;;;;;;;;;16.35;100.00;101110.72;5003088;28;20299;-44
2022/09/16 11:03:34;;;;;;;;;;;;;;;16.07;100.00;101115.19;5004243;28;20045;-41
2022/09/16 11:06:21;;;;;;;;;;;;;;;15.80;100.00;101113.03;5009676;28;19921;-39
2022/09/16 11:09:05;;;;;;;;;;;;;;;15.64;100.00;101118.59;5005082;28;20288;-43
2022/09/16 11:11:44;;;;;;;;;;;;;;;15.43;100.00;101120.19;5013469;28;20425;-43
2022/09/16 11:14:09;;;;;;;;;;;;;;;15.64;100.00;101116.72;5004496;28;19995;-41
2022/09/16 11:16:34;;;;;;;;;;;;;;;15.96;100.00;101106.59;5012245;28;19917;-42
2022/09/16 11:19:10;;;;;;;;;;;;;;;16.40;100.00;101113.66;5003742;28;20008;-44
2022/09/16 11:21:41;;;;;;;;;;;;;;;16.98;100.00;101112.72;5004484;28;19922;-41
2022/09/16 11:24:19;;;;;;;;;;;;;;;17.29;93.67;101109.59;5002273;28;20353;-42
2022/09/16 11:27:02;;;;;;;;;;;;;;;17.37;93.61;101113.16;5004038;28;19918;-41
2022/09/16 11:29:46;;;;;;;;;;;;;;;17.50;84.71;101105.97;5004897;28;19917;-44
2022/09/16 11:32:17;;;;;;;;;;;;;;;17.43;83.23;101123.16;5003470;28;19928;-42
2022/09/16 11:35:01;;;;;;;;;;;;;;;17.19;89.44;101128.00;5002694;28;19928;-46
2022/09/16 11:37:32;;;;;;;;;;;;;;;17.21;88.51;101114.31;5006423;28;20380;-44
2022/09/16 11:40:16;;;;;;;;;;;;;;;17.21;88.12;101138.59;5002792;28;19975;-44
2022/09/16 11:42:47;;;;;;;;;;;;;;;16.56;87.92;101181.84;5004937;28;19914;-42
2022/09/16 11:45:31;;;;;;;;;;;;;;;16.07;89.91;101204.09;5010910;28;19998;-39
2022/09/16 11:48:14;;;;;;;;;;;;;;;14.48;94.06;101179.91;5024015;28;20430;-39
2022/09/16 11:50:44;;;;;;;;;;;;;;;13.61;98.98;101192.41;5022233;28;20004;-39
2022/09/16 11:53:45;;;;;;;;;;;;;;;13.20;100.00;101173.72;5023297;28;20019;-40
2022/09/16 11:56:14;;;;;;;;;;;;;;;13.09;100.00;101167.84;5019215;28;20025;-41
2022/09/16 11:58:39;;;;;;;;;;;;;;;13.15;100.00;101172.53;5012875;28;19913;-41
2022/09/16 12:01:31;;;;;;;;;;;;;;;13.22;100.00;101173.50;5022535;28;19913;-40
2022/09/16 12:04:10;;;;;;;;;;;;;;;13.72;100.00;101172.41;5022284;28;20367;-42
2022/09/16 12:06:39;;;;;;;;;;;;;;;14.29;100.00;101167.75;5022651;28;20351;-42
2022/09/16 12:09:08;;;;;;;;;;;;;;;14.49;100.00;101171.66;5021624;28;20014;-41
2022/09/16 12:11:36;;;;;;;;;;;;;;;14.78;100.00;101170.09;5023520;28;20306;-42
2022/09/16 12:14:28;;;;;;;;;;;;;;;15.07;100.00;101168.50;5022788;28;19939;-42
2022/09/16 12:17:05;;;;;;;;;;;;;;;15.52;100.00;101155.09;5022203;28;19917;-42
2022/09/16 12:19:35;;;;;;;;;;;;;;;15.95;100.00;101148.00;5021932;28;20032;-43
2022/09/16 12:22:04;;;;;;;;;;;;;;;16.14;100.00;101151.97;5019814;28;19917;-41
2022/09/16 12:24:35;;;;;;;;;;;;;;;16.45;99.89;101152.72;5002313;28;19932;-41
2022/09/16 12:27:05;;;;;;;;;;;;;;;16.99;98.07;101151.31;5009313;28;19925;-41
2022/09/16 12:29:47;;;;;;;;;;;;;;;17.38;87.53;101139.97;5012046;28;19928;-42
2022/09/16 12:32:16;;;;;;;;;;;;;;;16.85;89.54;101153.91;5006470;28;19921;-41
2022/09/16 12:34:48;;;;;;;;;;;;;;;16.33;97.80;101157.78;5010391;28;19914;-41
2022/09/16 12:37:22;;;;;;;;;;;;;;;15.91;99.41;101167.44;5007006;28;19917;-43
2022/09/16 12:39:48;;;;;;;;;;;;;;;15.50;100.00;101179.50;5001802;28;20635;-42
2022/09/16 12:42:35;;;;;;;;;;;;;;;15.04;100.00;101175.09;5003137;28;19914;-43